Meldrim, Georgia
Current Conditions -  °F | °C
As of 2:53 PM on Thursday 30 Oct 2014 (Local Time) from KSAV Reporting Station
Scattered Clouds Scattered Clouds  
Wind Chill: 75°   Ceiling: Unl
Heat Index: 75°   Visibility: 10mi
Dew Point: 57°   Wind: 7mph
Humidity: 53%   Direction: 340°NNW
Pressure: 29.93"   Gusts: NA
Location:  32.14°N, 81.38°W
Report Text: KSAV 301853Z 34006KT 10SM FEW026 SCT170 SCT250 24/14 A2993 RMK AO2 SLP135 T02390139
Loading
Personal Weather Stations






























Interactive Weather Map
Tropical Storm Tracking
New forecast layout! Learn more

10-Day Weather Forecast

Advertisements
Track Severe Weather on mobile